createdAt,value
2023-02-11T00:01:11.147Z,90.90
2023-02-11T00:03:38.761Z,91.30
2023-02-11T00:06:10.129Z,91.50
2023-02-11T00:08:37.291Z,91.60
2023-02-11T00:11:04.350Z,91.90
2023-02-11T00:13:31.064Z,92.00
2023-02-11T00:15:57.840Z,92.20
2023-02-11T00:18:24.496Z,92.30
2023-02-11T00:20:51.171Z,92.40
2023-02-11T00:23:17.821Z,92.70
2023-02-11T00:25:45.499Z,92.90
2023-02-11T00:28:12.828Z,93.00
2023-02-11T00:30:39.773Z,93.40
2023-02-11T00:33:06.525Z,93.30
2023-02-11T00:35:33.223Z,93.60
2023-02-11T00:37:59.848Z,93.50
2023-02-11T00:40:26.587Z,93.60
2023-02-11T00:42:53.241Z,93.70
2023-02-11T00:45:21.146Z,93.60
2023-02-11T00:47:48.103Z,93.50
2023-02-11T00:50:14.813Z,93.30
2023-02-11T00:52:41.549Z,93.50
2023-02-11T00:55:08.368Z,93.50
2023-02-11T00:57:35.093Z,93.70
2023-02-11T01:00:01.797Z,93.80
2023-02-11T01:02:28.475Z,93.80
2023-02-11T01:04:55.257Z,93.70
2023-02-11T01:07:22.049Z,94.00
2023-02-11T01:09:48.671Z,93.90
2023-02-11T01:12:15.359Z,94.30
2023-02-11T01:14:42.024Z,94.40
2023-02-11T01:17:08.791Z,94.50
2023-02-11T01:19:37.285Z,94.40
2023-02-11T01:22:04.449Z,94.20
2023-02-11T01:24:31.090Z,93.70
2023-02-11T01:26:57.790Z,93.40
2023-02-11T01:29:25.363Z,93.20
2023-02-11T01:31:52.450Z,93.20
2023-02-11T01:34:19.096Z,93.00
2023-02-11T01:36:45.731Z,92.90
2023-02-11T01:39:12.400Z,93.00
2023-02-11T01:41:39.220Z,92.90
2023-02-11T01:44:31.924Z,92.80
2023-02-11T01:46:59.151Z,92.80
2023-02-11T01:49:37.942Z,92.70
2023-02-11T01:52:19.983Z,92.80
2023-02-11T01:55:09.673Z,92.70
2023-02-11T01:57:39.148Z,92.90
2023-02-11T02:00:24.100Z,93.10
2023-02-11T02:03:07.638Z,93.00
2023-02-11T02:05:59.679Z,93.00
2023-02-11T02:08:47.345Z,93.80
2023-02-11T02:11:14.040Z,93.20
2023-02-11T02:13:40.807Z,93.40
2023-02-11T02:16:16.124Z,93.20
2023-02-11T02:19:09.561Z,92.90
2023-02-11T02:21:57.318Z,92.70
2023-02-11T02:24:51.111Z,92.70
2023-02-11T02:28:00.955Z,92.90
2023-02-11T02:30:33.159Z,92.80
2023-02-11T02:33:32.198Z,92.80
2023-02-11T02:36:09.199Z,92.80
2023-02-11T02:38:44.913Z,92.90
2023-02-11T02:41:15.612Z,92.90
2023-02-11T02:43:49.165Z,92.90
2023-02-11T02:46:24.126Z,92.90
2023-02-11T02:48:55.027Z,92.90
2023-02-11T02:51:39.884Z,92.90
2023-02-11T02:54:48.436Z,92.80
2023-02-11T02:57:30.326Z,92.70
2023-02-11T03:00:28.333Z,92.80
2023-02-11T03:03:15.668Z,92.70
2023-02-11T03:05:56.041Z,92.80
2023-02-11T03:08:25.489Z,92.90
2023-02-11T03:10:54.222Z,92.90
2023-02-11T03:13:26.549Z,92.80
2023-02-11T03:15:57.142Z,92.80
2023-02-11T03:18:27.733Z,92.80
2023-02-11T03:20:55.062Z,92.60
2023-02-11T03:23:25.763Z,92.60
2023-02-11T03:26:13.602Z,92.60
2023-02-11T03:29:06.989Z,92.70
2023-02-11T03:31:51.737Z,92.90
2023-02-11T03:34:37.848Z,93.00
2023-02-11T03:37:17.778Z,93.00
2023-02-11T03:39:51.130Z,93.10
2023-02-11T03:42:19.284Z,93.10
2023-02-11T03:44:57.210Z,93.10
2023-02-11T03:47:27.867Z,93.00
2023-02-11T03:49:57.508Z,93.10
2023-02-11T03:52:25.863Z,93.00
2023-02-11T03:54:57.027Z,93.00
2023-02-11T03:57:23.977Z,93.10
2023-02-11T03:59:55.259Z,93.10
2023-02-11T04:02:27.221Z,93.10
2023-02-11T04:04:53.911Z,93.20
2023-02-11T04:07:20.875Z,93.40
2023-02-11T04:09:47.551Z,93.30
2023-02-11T04:12:14.294Z,93.40
2023-02-11T04:14:40.926Z,93.50
2023-02-11T04:17:07.613Z,93.60
2023-02-11T04:19:34.502Z,93.70
2023-02-11T04:22:01.422Z,93.90
2023-02-11T04:24:28.122Z,93.90
2023-02-11T04:26:54.879Z,94.00
2023-02-11T04:29:21.557Z,94.10
2023-02-11T04:31:48.681Z,94.00
2023-02-11T04:34:15.548Z,93.90
2023-02-11T04:36:42.577Z,93.80
2023-02-11T04:39:09.369Z,93.80
2023-02-11T04:41:36.122Z,93.80
2023-02-11T04:44:02.912Z,93.70
2023-02-11T04:46:29.671Z,93.70
2023-02-11T04:48:57.060Z,93.80
2023-02-11T04:51:23.970Z,93.70
2023-02-11T04:53:50.665Z,93.70
2023-02-11T04:56:17.325Z,93.50
2023-02-11T04:58:44.025Z,93.60
2023-02-11T05:01:13.072Z,93.60
2023-02-11T05:03:39.927Z,93.50
2023-02-11T05:06:06.997Z,93.40
2023-02-11T05:08:33.784Z,93.30
2023-02-11T05:11:02.090Z,93.20
2023-02-11T05:13:29.670Z,93.10
2023-02-11T05:15:56.468Z,93.10
2023-02-11T05:18:23.718Z,93.10
2023-02-11T05:20:50.361Z,93.10
2023-02-11T05:23:16.986Z,93.10
2023-02-11T05:25:43.661Z,93.10
2023-02-11T05:28:10.429Z,93.00
2023-02-11T05:30:37.103Z,92.80
2023-02-11T05:33:03.919Z,92.60
2023-02-11T05:35:30.581Z,92.60
2023-02-11T05:37:57.212Z,92.60
2023-02-11T05:40:23.876Z,92.50
2023-02-11T05:42:50.537Z,92.50
2023-02-11T05:45:17.255Z,92.60
2023-02-11T05:47:43.890Z,92.60
2023-02-11T05:50:10.536Z,92.70
2023-02-11T05:52:37.200Z,92.60
2023-02-11T05:55:04.388Z,92.70
2023-02-11T05:57:31.069Z,92.70
2023-02-11T05:59:57.676Z,92.70
2023-02-11T06:02:24.448Z,92.50
2023-02-11T06:04:51.167Z,92.50
2023-02-11T06:07:19.677Z,92.50
2023-02-11T06:09:46.329Z,92.40
2023-02-11T06:12:13.016Z,92.50
2023-02-11T06:14:39.646Z,92.70
2023-02-11T06:17:06.579Z,92.80
2023-02-11T06:19:33.370Z,92.80
2023-02-11T06:22:00.102Z,92.90
2023-02-11T06:24:48.127Z,92.80
2023-02-11T06:27:13.433Z,92.70
2023-02-11T06:29:40.122Z,92.60
2023-02-11T06:32:08.658Z,92.50
2023-02-11T06:34:38.552Z,92.60
2023-02-11T06:37:05.590Z,92.60
2023-02-11T06:39:32.789Z,92.60
2023-02-11T06:41:59.772Z,92.70
2023-02-11T06:44:26.486Z,92.60
2023-02-11T06:46:53.268Z,92.50
2023-02-11T06:49:19.950Z,92.60
2023-02-11T06:51:46.575Z,92.70
2023-02-11T06:54:13.287Z,92.70
2023-02-11T06:56:41.134Z,92.80
2023-02-11T06:59:07.808Z,92.80
2023-02-11T07:01:34.571Z,92.80
2023-02-11T07:04:01.213Z,92.90
2023-02-11T07:06:28.271Z,92.90
2023-02-11T07:08:55.663Z,93.00
2023-02-11T07:11:24.970Z,93.10
2023-02-11T07:13:53.067Z,93.10
2023-02-11T07:16:20.299Z,92.90
2023-02-11T07:18:48.305Z,92.90
2023-02-11T07:21:18.068Z,92.80
2023-02-11T07:23:45.125Z,92.70
2023-02-11T07:26:14.415Z,92.70
2023-02-11T07:28:41.712Z,92.60
2023-02-11T07:31:10.737Z,92.50
2023-02-11T07:33:38.293Z,92.60
2023-02-11T07:36:07.106Z,92.70
2023-02-11T07:38:34.845Z,92.80
2023-02-11T07:41:02.646Z,92.90
2023-02-11T07:43:30.697Z,93.00
2023-02-11T07:45:59.062Z,93.20
2023-02-11T07:48:25.798Z,93.40
2023-02-11T07:50:52.397Z,93.30
2023-02-11T07:53:19.078Z,93.30
2023-02-11T07:55:45.812Z,93.40
2023-02-11T07:58:12.744Z,93.40
2023-02-11T08:00:39.487Z,93.50
2023-02-11T08:03:08.290Z,93.60
2023-02-11T08:05:38.648Z,93.70
2023-02-11T08:08:05.281Z,93.70
2023-02-11T08:10:31.980Z,93.70
2023-02-11T08:12:58.681Z,93.80
2023-02-11T08:15:25.369Z,93.90
2023-02-11T08:17:52.025Z,93.90
2023-02-11T08:20:18.766Z,94.00
2023-02-11T08:22:45.451Z,93.90
2023-02-11T08:25:12.101Z,93.90
2023-02-11T08:27:38.822Z,94.00
2023-02-11T08:30:05.931Z,94.00
2023-02-11T08:32:35.173Z,93.80
2023-02-11T08:35:01.930Z,93.60
2023-02-11T08:37:28.910Z,93.00
2023-02-11T08:39:56.588Z,92.60
2023-02-11T08:42:23.207Z,92.40
2023-02-11T08:44:49.798Z,92.00
2023-02-11T08:47:16.539Z,91.80
2023-02-11T08:49:43.255Z,91.70
2023-02-11T08:52:10.388Z,92.00
2023-02-11T08:54:37.334Z,92.00
2023-02-11T08:57:04.646Z,91.90
2023-02-11T08:59:31.373Z,92.00
2023-02-11T09:01:58.323Z,92.20
2023-02-11T09:04:25.044Z,92.30
2023-02-11T09:06:51.790Z,92.20
2023-02-11T09:09:18.415Z,91.80
2023-02-11T09:11:45.551Z,91.80
2023-02-11T09:14:22.435Z,91.50
2023-02-11T09:16:49.435Z,91.50
2023-02-11T09:19:17.349Z,91.20
2023-02-11T09:21:44.614Z,91.00
2023-02-11T09:24:11.906Z,91.40
2023-02-11T09:26:42.335Z,91.00
2023-02-11T09:29:09.400Z,91.10
2023-02-11T09:31:36.251Z,90.40
2023-02-11T09:34:05.165Z,90.20
2023-02-11T09:36:37.360Z,89.80
2023-02-11T09:39:06.092Z,89.40
2023-02-11T09:41:49.282Z,89.70
2023-02-11T09:44:23.036Z,89.40
2023-02-11T09:46:57.711Z,89.30
2023-02-11T09:49:46.897Z,88.00
2023-02-11T09:52:38.366Z,88.30
2023-02-11T09:55:21.656Z,87.70
2023-02-11T09:57:48.740Z,86.90
2023-02-11T10:00:34.033Z,86.70
2023-02-11T10:03:25.359Z,85.10
2023-02-11T10:06:16.770Z,85.30
2023-02-11T10:09:08.302Z,84.80
2023-02-11T10:11:56.116Z,85.10
2023-02-11T10:14:55.924Z,83.80
2023-02-11T10:17:35.085Z,83.00
2023-02-11T10:20:21.974Z,81.80
2023-02-11T10:23:21.048Z,81.70
2023-02-11T10:25:54.455Z,81.10
2023-02-11T10:28:24.920Z,80.60
2023-02-11T10:30:59.599Z,81.00
2023-02-11T10:33:37.396Z,81.40
2023-02-11T10:36:05.005Z,81.40
2023-02-11T10:38:33.761Z,80.40
2023-02-11T10:41:00.462Z,81.30
2023-02-11T10:43:30.697Z,81.50
2023-02-11T10:46:02.732Z,81.90
2023-02-11T10:48:43.488Z,82.80
2023-02-11T10:51:14.614Z,82.10
2023-02-11T10:53:41.511Z,82.80
2023-02-11T10:56:11.443Z,82.30
2023-02-11T10:58:55.559Z,82.20
2023-02-11T11:01:24.725Z,82.80
2023-02-11T11:03:52.867Z,82.70
2023-02-11T11:06:31.680Z,82.70
2023-02-11T11:08:58.720Z,83.10
2023-02-11T11:11:26.498Z,82.70
2023-02-11T11:13:53.160Z,82.60
2023-02-11T11:16:21.957Z,83.20
2023-02-11T11:18:51.628Z,83.40
2023-02-11T11:21:22.979Z,83.70
2023-02-11T11:23:53.667Z,82.70
2023-02-11T11:26:21.369Z,82.50
2023-02-11T11:28:56.305Z,82.90
2023-02-11T11:31:33.408Z,82.40
2023-02-11T11:34:03.554Z,82.40
2023-02-11T11:36:39.569Z,82.70
2023-02-11T11:39:46.408Z,82.40
2023-02-11T11:42:33.442Z,82.60
2023-02-11T11:45:24.700Z,82.70
2023-02-11T11:47:59.926Z,83.20
2023-02-11T11:50:30.963Z,83.30
2023-02-11T11:53:22.390Z,82.80
2023-02-11T11:56:03.563Z,83.10
2023-02-11T11:58:31.596Z,83.00
2023-02-11T12:01:24.946Z,82.70
2023-02-11T12:04:24.621Z,82.50
2023-02-11T12:07:12.047Z,82.80
2023-02-11T12:09:55.401Z,83.00
2023-02-11T12:12:46.730Z,83.20
2023-02-11T12:15:41.097Z,83.20
2023-02-11T12:18:07.668Z,83.50
2023-02-11T12:21:03.346Z,83.40
2023-02-11T12:23:48.430Z,83.40
2023-02-11T12:26:18.310Z,83.30
2023-02-11T12:29:23.216Z,83.50
2023-02-11T12:32:07.050Z,83.50
2023-02-11T12:34:55.701Z,83.50
2023-02-11T12:38:00.047Z,83.90
2023-02-11T12:40:46.273Z,84.20
2023-02-11T12:43:23.963Z,84.30
2023-02-11T12:46:21.677Z,84.20
2023-02-11T12:49:10.157Z,83.80
2023-02-11T12:51:42.753Z,83.70
2023-02-11T12:54:24.528Z,83.90
2023-02-11T12:57:25.532Z,84.20
2023-02-11T13:00:22.928Z,84.00
2023-02-11T13:03:11.305Z,84.10
2023-02-11T13:05:49.518Z,84.20
2023-02-11T13:08:36.128Z,84.10
2023-02-11T13:11:08.308Z,84.40
2023-02-11T13:13:55.064Z,84.90
2023-02-11T13:16:24.917Z,84.70
2023-02-11T13:19:01.127Z,84.50
2023-02-11T13:21:54.728Z,85.00
2023-02-11T13:24:59.745Z,84.40
2023-02-11T13:28:01.293Z,84.20
2023-02-11T13:30:32.958Z,83.70
2023-02-11T13:33:00.877Z,83.70
2023-02-11T13:35:32.398Z,83.80
2023-02-11T13:38:21.437Z,83.50
2023-02-11T13:41:21.008Z,83.50
2023-02-11T13:43:59.993Z,83.10
2023-02-11T13:46:28.978Z,83.40
2023-02-11T13:48:56.677Z,82.70
2023-02-11T13:51:42.272Z,82.70
2023-02-11T13:54:22.305Z,83.10
2023-02-11T13:57:20.838Z,83.50
2023-02-11T13:59:53.086Z,82.70
2023-02-11T14:02:41.861Z,83.20
2023-02-11T14:05:26.953Z,82.70
2023-02-11T14:08:30.573Z,82.20
2023-02-11T14:11:08.561Z,82.60
2023-02-11T14:14:03.020Z,82.70
2023-02-11T14:16:37.835Z,82.90
2023-02-11T14:19:06.138Z,83.10
2023-02-11T14:21:40.294Z,83.60
2023-02-11T14:24:10.796Z,83.70
2023-02-11T14:27:09.793Z,83.70
2023-02-11T14:30:08.478Z,84.20
2023-02-11T14:33:12.386Z,84.60
2023-02-11T14:36:08.689Z,85.10
2023-02-11T14:39:14.581Z,85.40
2023-02-11T14:41:44.052Z,85.20
2023-02-11T14:44:21.290Z,85.50
2023-02-11T14:46:50.740Z,85.70
2023-02-11T14:49:37.738Z,85.70
2023-02-11T14:52:26.531Z,86.30
2023-02-11T14:55:14.815Z,85.50
2023-02-11T14:57:44.412Z,85.20
2023-02-11T15:00:18.755Z,85.10
2023-02-11T15:02:45.577Z,84.30
2023-02-11T15:05:19.899Z,84.20
2023-02-11T15:07:49.538Z,84.20
2023-02-11T15:10:20.939Z,84.20
2023-02-11T15:12:49.158Z,84.30
2023-02-11T15:15:16.596Z,84.80
2023-02-11T15:17:54.249Z,85.00
2023-02-11T15:20:28.257Z,85.30
2023-02-11T15:23:04.889Z,85.50
2023-02-11T15:25:34.055Z,85.90
2023-02-11T15:28:01.059Z,86.10
2023-02-11T15:30:32.200Z,86.10
2023-02-11T15:33:02.850Z,86.20
2023-02-11T15:35:36.580Z,86.40
2023-02-11T15:38:04.264Z,87.00
2023-02-11T15:40:33.508Z,86.80
2023-02-11T15:43:00.244Z,87.00
2023-02-11T15:45:33.844Z,86.90
2023-02-11T15:48:14.585Z,88.40
2023-02-11T15:50:43.006Z,89.50
2023-02-11T15:53:21.962Z,89.80
2023-02-11T15:55:51.572Z,89.40
2023-02-11T15:58:18.680Z,89.10
2023-02-11T16:00:48.624Z,89.00
2023-02-11T16:03:24.792Z,88.90
2023-02-11T16:05:51.962Z,88.80
2023-02-11T16:08:29.292Z,88.40
2023-02-11T16:11:03.209Z,87.80
2023-02-11T16:13:33.636Z,87.50
2023-02-11T16:16:04.628Z,87.50
2023-02-11T16:18:40.442Z,87.90
2023-02-11T16:21:15.931Z,89.00
2023-02-11T16:23:49.040Z,90.60
2023-02-11T16:26:35.945Z,91.90
2023-02-11T16:29:15.313Z,92.10
2023-02-11T16:31:45.202Z,91.90
2023-02-11T16:34:20.541Z,91.50
2023-02-11T16:36:47.965Z,91.20
2023-02-11T16:39:16.762Z,91.00
2023-02-11T16:41:43.522Z,90.90
2023-02-11T16:44:10.210Z,90.70
2023-02-11T16:46:37.287Z,90.10
2023-02-11T16:49:28.448Z,89.60
2023-02-11T16:51:58.517Z,89.20
2023-02-11T16:54:25.273Z,88.90
2023-02-11T16:56:51.895Z,88.90
2023-02-11T16:59:18.638Z,88.80
2023-02-11T17:01:46.652Z,88.50
2023-02-11T17:04:24.407Z,88.50
2023-02-11T17:06:51.289Z,88.30
2023-02-11T17:09:27.755Z,88.30
2023-02-11T17:11:55.638Z,88.20
2023-02-11T17:14:22.269Z,88.30
2023-02-11T17:16:49.040Z,88.20
2023-02-11T17:19:17.638Z,88.50
2023-02-11T17:21:45.920Z,88.40
2023-02-11T17:24:14.975Z,88.50
2023-02-11T17:26:44.129Z,88.30
2023-02-11T17:29:17.247Z,88.40
2023-02-11T17:31:44.136Z,88.50
2023-02-11T17:34:11.203Z,88.60
2023-02-11T17:36:37.939Z,89.30
2023-02-11T17:39:08.114Z,88.70
2023-02-11T17:41:37.474Z,88.70
2023-02-11T17:44:04.905Z,89.00
2023-02-11T17:46:32.276Z,89.00
2023-02-11T17:48:59.510Z,89.00
2023-02-11T17:51:28.724Z,89.30
2023-02-11T17:53:58.073Z,89.00
2023-02-11T17:56:25.092Z,88.90
2023-02-11T17:58:52.983Z,89.80
2023-02-11T18:01:20.052Z,89.40
2023-02-11T18:03:46.821Z,89.50
2023-02-11T18:06:13.498Z,89.50
2023-02-11T18:08:41.766Z,89.50
2023-02-11T18:11:13.448Z,89.40
2023-02-11T18:13:40.154Z,89.00
2023-02-11T18:16:15.734Z,88.90
2023-02-11T18:18:43.648Z,89.00
2023-02-11T18:21:18.326Z,88.80
2023-02-11T18:23:46.052Z,89.00
2023-02-11T18:26:13.870Z,89.80
2023-02-11T18:28:43.215Z,89.20
2023-02-11T18:31:11.923Z,89.10
2023-02-11T18:33:39.753Z,89.00
2023-02-11T18:36:08.937Z,89.10
2023-02-11T18:38:36.156Z,88.80
2023-02-11T18:41:03.270Z,88.90
2023-02-11T18:43:31.712Z,88.80
2023-02-11T18:45:58.480Z,88.90
2023-02-11T18:48:28.543Z,89.00
2023-02-11T18:50:55.707Z,89.10
2023-02-11T18:53:24.441Z,89.40
2023-02-11T18:55:52.563Z,89.20
2023-02-11T18:58:21.153Z,89.30
2023-02-11T19:00:48.471Z,89.50
2023-02-11T19:03:15.267Z,89.30
2023-02-11T19:05:47.607Z,90.10
2023-02-11T19:08:15.362Z,89.70
2023-02-11T19:10:46.977Z,89.60
2023-02-11T19:13:14.524Z,89.80
2023-02-11T19:15:45.614Z,89.60
2023-02-11T19:18:14.582Z,89.60
2023-02-11T19:20:43.058Z,89.70
2023-02-11T19:23:10.314Z,89.90
2023-02-11T19:25:37.662Z,89.60
2023-02-11T19:28:05.058Z,89.50
2023-02-11T19:30:31.719Z,89.60
2023-02-11T19:32:58.455Z,89.50
2023-02-11T19:35:25.690Z,89.60
2023-02-11T19:37:52.766Z,89.60
2023-02-11T19:40:21.191Z,89.90
2023-02-11T19:42:48.227Z,89.80
2023-02-11T19:45:15.089Z,89.90
2023-02-11T19:47:41.811Z,90.00
2023-02-11T19:50:08.968Z,90.20
2023-02-11T19:52:38.543Z,90.10
2023-02-11T19:55:05.629Z,89.90
2023-02-11T19:57:32.286Z,89.80
2023-02-11T19:59:59.492Z,90.10
2023-02-11T20:02:26.230Z,90.10
2023-02-11T20:04:52.997Z,90.00
2023-02-11T20:07:19.697Z,89.40
2023-02-11T20:09:46.326Z,89.20
2023-02-11T20:12:13.046Z,89.00
2023-02-11T20:14:39.737Z,89.00
2023-02-11T20:17:06.436Z,89.70
2023-02-11T20:19:33.257Z,89.40
2023-02-11T20:22:00.032Z,89.30
2023-02-11T20:24:26.913Z,90.30
2023-02-11T20:26:56.897Z,90.90
2023-02-11T20:29:25.906Z,91.40
2023-02-11T20:31:52.949Z,91.50
2023-02-11T20:34:21.045Z,91.80
2023-02-11T20:36:56.426Z,92.20
2023-02-11T20:39:24.645Z,92.20
2023-02-11T20:41:53.236Z,92.00
2023-02-11T20:44:22.195Z,92.00
2023-02-11T20:46:49.701Z,92.00
2023-02-11T20:49:19.366Z,92.30
2023-02-11T20:51:46.315Z,92.70
2023-02-11T20:54:14.898Z,91.90
2023-02-11T20:56:42.211Z,91.30
2023-02-11T20:59:09.580Z,91.40
2023-02-11T21:01:40.656Z,91.50
2023-02-11T21:04:13.545Z,91.90
2023-02-11T21:06:43.823Z,92.60
2023-02-11T21:09:17.375Z,93.20
2023-02-11T21:11:44.129Z,93.50
2023-02-11T21:14:12.038Z,93.60
2023-02-11T21:16:39.148Z,94.20
2023-02-11T21:19:06.632Z,94.50
2023-02-11T21:21:35.964Z,94.70
2023-02-11T21:24:02.765Z,95.30
2023-02-11T21:26:29.479Z,95.60
2023-02-11T21:28:56.305Z,96.30
2023-02-11T21:31:25.965Z,97.00
2023-02-11T21:33:55.063Z,97.40
2023-02-11T21:36:22.801Z,98.60
2023-02-11T21:38:50.050Z,99.90
2023-02-11T21:41:18.408Z,99.90
2023-02-11T21:43:45.224Z,99.90
2023-02-11T21:46:14.883Z,99.90
2023-02-11T21:48:42.111Z,99.90
2023-02-11T21:51:14.616Z,99.90
2023-02-11T21:53:41.286Z,99.90
2023-02-11T21:56:18.761Z,99.90
2023-02-11T21:58:46.323Z,99.90
2023-02-11T22:01:25.848Z,99.90
2023-02-11T22:03:53.154Z,99.90
2023-02-11T22:06:31.012Z,99.90
2023-02-11T22:08:58.526Z,99.90
2023-02-11T22:11:25.293Z,99.90
2023-02-11T22:13:56.373Z,99.90
2023-02-11T22:16:24.411Z,99.90
2023-02-11T22:18:51.505Z,99.90
2023-02-11T22:21:21.912Z,99.90
2023-02-11T22:23:49.100Z,99.90
2023-02-11T22:26:21.193Z,99.90
2023-02-11T22:28:48.423Z,99.90
2023-02-11T22:31:17.916Z,99.90
2023-02-11T22:33:45.685Z,99.90
2023-02-11T22:36:23.735Z,99.90
2023-02-11T22:38:50.983Z,99.90
2023-02-11T22:41:18.041Z,99.90
2023-02-11T22:43:45.234Z,99.90
2023-02-11T22:46:14.707Z,99.90
2023-02-11T22:48:41.458Z,99.90
2023-02-11T22:51:10.516Z,99.90
2023-02-11T22:53:37.439Z,99.90
2023-02-11T22:56:15.029Z,99.90
2023-02-11T22:58:42.088Z,99.90
2023-02-11T23:01:08.820Z,99.90
2023-02-11T23:03:35.709Z,99.90
2023-02-11T23:06:02.858Z,99.90
2023-02-11T23:08:30.354Z,99.90
2023-02-11T23:10:57.241Z,99.90
2023-02-11T23:13:23.952Z,99.90
2023-02-11T23:15:50.635Z,99.90
2023-02-11T23:18:17.366Z,99.90
2023-02-11T23:20:44.937Z,99.90
2023-02-11T23:23:12.209Z,99.90
2023-02-11T23:25:43.724Z,99.90
2023-02-11T23:28:11.684Z,99.90
2023-02-11T23:30:39.561Z,99.90
2023-02-11T23:33:06.323Z,99.90
2023-02-11T23:35:33.129Z,99.90
2023-02-11T23:37:59.835Z,99.90
2023-02-11T23:40:26.579Z,99.90
2023-02-11T23:42:53.377Z,99.90
2023-02-11T23:45:20.169Z,99.90
2023-02-11T23:47:47.603Z,99.90
2023-02-11T23:50:14.481Z,99.90
2023-02-11T23:52:41.418Z,99.90
2023-02-11T23:55:11.366Z,99.90
2023-02-11T23:57:38.490Z,99.90
